createdAt,value
2018-06-09T00:00:54.840Z,101074.66
2018-06-09T00:03:24.392Z,101069.33
2018-06-09T00:05:53.915Z,101073.34
2018-06-09T00:08:23.246Z,101070.06
2018-06-09T00:10:52.520Z,101076.55
2018-06-09T00:13:22.070Z,101076.54
2018-06-09T00:15:51.461Z,101080.19
2018-06-09T00:18:20.776Z,101084.06
2018-06-09T00:20:50.109Z,101084.35
2018-06-09T00:23:19.407Z,101084.45
2018-06-09T00:25:48.730Z,101093.02
2018-06-09T00:28:18.083Z,101085.84
2018-06-09T00:30:47.411Z,101090.84
2018-06-09T00:33:16.739Z,101090.84
2018-06-09T00:35:46.491Z,101080.67
2018-06-09T00:38:16.484Z,101080.55
2018-06-09T00:40:45.795Z,101079.78
2018-06-09T00:43:15.110Z,101076.80
2018-06-09T00:45:44.462Z,101078.23
2018-06-09T00:48:13.791Z,101077.89
2018-06-09T00:50:43.123Z,101083.09
2018-06-09T00:53:12.713Z,101087.87
2018-06-09T00:55:42.023Z,101085.73
2018-06-09T00:58:11.574Z,101084.05
2018-06-09T01:00:40.871Z,101084.90
2018-06-09T01:03:10.168Z,101078.31
2018-06-09T01:05:39.587Z,101077.55
2018-06-09T01:08:08.912Z,101074.06
2018-06-09T01:10:38.191Z,101079.62
2018-06-09T01:13:07.510Z,101072.14
2018-06-09T01:15:36.795Z,101070.92
2018-06-09T01:18:06.146Z,101072.04
2018-06-09T01:20:35.950Z,101072.09
2018-06-09T01:23:05.339Z,101067.73
2018-06-09T01:25:34.706Z,101062.70
2018-06-09T01:28:04.064Z,101059.53
2018-06-09T01:30:33.363Z,101059.53
2018-06-09T01:33:02.657Z,101067.73
2018-06-09T01:35:31.958Z,101068.83
2018-06-09T01:38:01.235Z,101069.67
2018-06-09T01:40:30.591Z,101068.78
2018-06-09T01:43:00.080Z,101070.95
2018-06-09T01:45:29.437Z,101070.80
2018-06-09T01:47:58.738Z,101069.62
2018-06-09T01:50:28.065Z,101067.55
2018-06-09T01:52:57.326Z,101070.31
2018-06-09T01:55:26.855Z,101068.87
2018-06-09T01:57:56.143Z,101070.77
2018-06-09T02:00:25.435Z,101060.73
2018-06-09T02:02:54.878Z,101067.00
2018-06-09T02:05:24.536Z,101066.70
2018-06-09T02:07:53.853Z,101062.76
2018-06-09T02:10:23.163Z,101056.92
2018-06-09T02:12:52.488Z,101071.28
2018-06-09T02:15:21.763Z,101063.02
2018-06-09T02:17:51.086Z,101063.17
2018-06-09T02:20:20.405Z,101064.80
2018-06-09T02:22:49.886Z,101062.64
2018-06-09T02:25:19.166Z,101075.43
2018-06-09T02:27:49.039Z,101067.08
2018-06-09T02:30:18.387Z,101059.84
2018-06-09T02:32:47.705Z,101066.16
2018-06-09T02:35:17.069Z,101066.75
2018-06-09T02:37:46.418Z,101065.03
2018-06-09T02:40:15.691Z,101065.62
2018-06-09T02:42:45.194Z,101066.47
2018-06-09T02:45:14.538Z,101071.81
2018-06-09T02:47:43.895Z,101072.16
2018-06-09T02:50:13.776Z,101073.80
2018-06-09T02:52:43.111Z,101074.88
2018-06-09T02:55:12.452Z,101077.86
2018-06-09T02:57:42.300Z,101080.16
2018-06-09T03:00:11.638Z,101082.25
2018-06-09T03:02:40.932Z,101080.84
2018-06-09T03:05:10.232Z,101080.70
2018-06-09T03:07:39.598Z,101082.62
2018-06-09T03:10:08.605Z,101083.02
2018-06-09T03:12:38.309Z,101081.08
2018-06-09T03:15:07.634Z,101082.47
2018-06-09T03:17:36.918Z,101079.39
2018-06-09T03:20:06.211Z,101086.36
2018-06-09T03:22:35.510Z,101073.12
2018-06-09T03:25:04.807Z,101077.17
2018-06-09T03:27:34.125Z,101075.31
2018-06-09T03:30:03.434Z,101080.53
2018-06-09T03:32:32.754Z,101075.36
2018-06-09T03:35:02.315Z,101078.38
2018-06-09T03:37:31.642Z,101080.52
2018-06-09T03:40:01.002Z,101081.27
2018-06-09T03:42:30.618Z,101080.81
2018-06-09T03:44:59.959Z,101082.55
2018-06-09T03:47:29.228Z,101085.67
2018-06-09T03:49:58.583Z,101077.27
2018-06-09T03:52:28.086Z,101079.39
2018-06-09T03:54:57.387Z,101073.67
2018-06-09T03:57:26.763Z,101070.80
2018-06-09T03:59:56.592Z,101065.77
2018-06-09T04:02:25.956Z,101066.25
2018-06-09T04:04:55.263Z,101067.94
2018-06-09T04:07:24.621Z,101065.27
2018-06-09T04:09:54.323Z,101063.29
2018-06-09T04:12:23.651Z,101068.78
2018-06-09T04:14:53.163Z,101068.23
2018-06-09T04:17:22.483Z,101076.84
2018-06-09T04:19:52.292Z,101076.25
2018-06-09T04:22:21.610Z,101083.81
2018-06-09T04:24:50.945Z,101083.95
2018-06-09T04:27:20.285Z,101078.62
2018-06-09T04:29:49.648Z,101083.86
2018-06-09T04:32:18.932Z,101085.64
2018-06-09T04:34:48.268Z,101081.04
2018-06-09T04:37:18.495Z,101080.88
2018-06-09T04:39:47.810Z,101082.13
2018-06-09T04:42:17.239Z,101080.64
2018-06-09T04:44:46.540Z,101090.86
2018-06-09T04:47:15.817Z,101083.53
2018-06-09T04:49:45.089Z,101084.17
2018-06-09T04:52:14.390Z,101086.28
2018-06-09T04:54:43.664Z,101084.22
2018-06-09T04:57:12.988Z,101084.23
2018-06-09T04:59:42.296Z,101091.25
2018-06-09T05:02:12.076Z,101088.78
2018-06-09T05:04:41.813Z,101086.97
2018-06-09T05:07:11.144Z,101084.23
2018-06-09T05:09:40.458Z,101081.24
2018-06-09T05:12:09.786Z,101080.92
2018-06-09T05:14:39.059Z,101077.19
2018-06-09T05:17:08.412Z,101076.05
2018-06-09T05:19:37.750Z,101079.65
2018-06-09T05:22:07.100Z,101087.73
2018-06-09T05:24:36.399Z,101091.13
2018-06-09T05:27:06.084Z,101089.61
2018-06-09T05:29:35.399Z,101085.78
2018-06-09T05:32:04.669Z,101090.80
2018-06-09T05:34:33.964Z,101085.47
2018-06-09T05:37:03.337Z,101089.70
2018-06-09T05:39:32.674Z,101086.84
2018-06-09T05:42:02.071Z,101091.45
2018-06-09T05:44:31.328Z,101090.56
2018-06-09T05:47:00.612Z,101091.02
2018-06-09T05:49:30.063Z,101088.44
2018-06-09T05:51:59.392Z,101095.98
2018-06-09T05:54:28.678Z,101098.39
2018-06-09T05:56:57.959Z,101094.66
2018-06-09T05:59:27.289Z,101091.91
2018-06-09T06:01:56.591Z,101086.58
2018-06-09T06:04:26.379Z,101086.11
2018-06-09T06:06:55.650Z,101098.96
2018-06-09T06:09:25.042Z,101092.60
2018-06-09T06:11:54.891Z,101097.84
2018-06-09T06:14:24.256Z,101095.58
2018-06-09T06:16:53.554Z,101096.45
2018-06-09T06:19:22.956Z,101096.68
2018-06-09T06:21:52.291Z,101101.48
2018-06-09T06:24:21.625Z,101094.77
2018-06-09T06:26:51.004Z,101087.14
2018-06-09T06:29:20.274Z,101087.98
2018-06-09T06:31:49.560Z,101099.03
2018-06-09T06:34:19.291Z,101097.43
2018-06-09T06:36:48.618Z,101101.44
2018-06-09T06:39:18.041Z,101103.14
2018-06-09T06:41:47.478Z,101104.70
2018-06-09T06:44:16.812Z,101102.28
2018-06-09T06:46:46.114Z,101105.89
2018-06-09T06:49:15.706Z,101107.95
2018-06-09T06:51:45.022Z,101117.30
2018-06-09T06:54:14.299Z,101118.13
2018-06-09T06:56:44.203Z,101125.50
2018-06-09T06:59:13.704Z,101116.00
2018-06-09T07:01:42.987Z,101122.17
2018-06-09T07:04:12.531Z,101126.75
2018-06-09T07:06:42.445Z,101137.93
2018-06-09T07:09:11.751Z,101134.93
2018-06-09T07:11:41.050Z,101147.45
2018-06-09T07:14:10.423Z,101148.56
2018-06-09T07:16:39.737Z,101153.00
2018-06-09T07:19:09.359Z,101143.56
2018-06-09T07:21:38.668Z,101151.36
2018-06-09T07:24:07.960Z,101148.09
2018-06-09T07:26:37.296Z,101143.34
2018-06-09T07:29:06.601Z,101151.17
2018-06-09T07:31:36.045Z,101165.39
2018-06-09T07:34:05.670Z,101157.02
2018-06-09T07:36:34.945Z,101164.00
2018-06-09T07:39:06.106Z,101157.23
2018-06-09T07:41:35.791Z,101159.45
2018-06-09T07:44:05.186Z,101148.23
2018-06-09T07:46:34.808Z,101154.90
2018-06-09T07:49:04.098Z,101166.43
2018-06-09T07:51:33.619Z,101162.84
2018-06-09T07:54:03.100Z,101164.20
2018-06-09T07:56:32.446Z,101167.33
2018-06-09T07:59:01.772Z,101162.00
2018-06-09T08:01:31.597Z,101165.09
2018-06-09T08:04:00.866Z,101161.44
2018-06-09T08:06:30.142Z,101164.78
2018-06-09T08:08:59.555Z,101156.34
2018-06-09T08:11:28.822Z,101164.09
2018-06-09T08:13:58.223Z,101160.55
2018-06-09T08:16:27.506Z,101159.73
2018-06-09T08:18:56.976Z,101166.50
2018-06-09T08:21:26.484Z,101157.09
2018-06-09T08:23:55.717Z,101157.92
2018-06-09T08:26:25.276Z,101149.14
2018-06-09T08:28:54.595Z,101150.92
2018-06-09T08:31:23.743Z,101142.41
2018-06-09T08:33:53.047Z,101147.41
2018-06-09T08:36:22.477Z,101139.33
2018-06-09T08:38:51.811Z,101139.71
2018-06-09T08:41:21.078Z,101140.48
2018-06-09T08:43:50.350Z,101139.73
2018-06-09T08:46:19.714Z,101141.44
2018-06-09T08:48:48.954Z,101135.56
2018-06-09T08:51:18.260Z,101139.04
2018-06-09T08:53:47.613Z,101143.97
2018-06-09T08:56:16.882Z,101138.02
2018-06-09T08:58:46.181Z,101137.97
2018-06-09T09:01:15.479Z,101139.41
2018-06-09T09:03:44.751Z,101129.11
2018-06-09T09:06:14.288Z,101132.66
2018-06-09T09:08:43.966Z,101133.28
2018-06-09T09:11:13.778Z,101126.32
2018-06-09T09:13:43.077Z,101133.58
2018-06-09T09:16:12.369Z,101131.86
2018-06-09T09:18:41.479Z,101134.66
2018-06-09T09:21:10.822Z,101133.64
2018-06-09T09:23:40.181Z,101138.86
2018-06-09T09:26:09.484Z,101131.41
2018-06-09T09:28:38.802Z,101131.68
2018-06-09T09:31:08.467Z,101135.68
2018-06-09T09:33:37.795Z,101131.42
2018-06-09T09:36:07.248Z,101130.91
2018-06-09T09:38:36.619Z,101125.84
2018-06-09T09:41:05.968Z,101127.52
2018-06-09T09:43:35.306Z,101133.55
2018-06-09T09:46:04.651Z,101125.10
2018-06-09T09:48:33.975Z,101123.81
2018-06-09T09:51:03.381Z,101126.82
2018-06-09T09:53:33.232Z,101125.20
2018-06-09T09:56:02.524Z,101127.91
2018-06-09T09:58:31.625Z,101126.61
2018-06-09T10:01:00.946Z,101128.87
2018-06-09T10:03:30.451Z,101126.78
2018-06-09T10:05:59.752Z,101123.12
2018-06-09T10:08:29.140Z,101119.11
2018-06-09T10:10:58.483Z,101125.05
2018-06-09T10:13:28.116Z,101118.79
2018-06-09T10:15:57.659Z,101120.58
2018-06-09T10:18:26.986Z,101115.02
2018-06-09T10:20:56.329Z,101104.26
2018-06-09T10:23:25.636Z,101101.31
2018-06-09T10:25:54.927Z,101091.75
2018-06-09T10:28:24.272Z,101096.42
2018-06-09T10:30:53.703Z,101088.95
2018-06-09T10:33:23.051Z,101087.29
2018-06-09T10:35:52.291Z,101087.96
2018-06-09T10:38:21.946Z,101082.13
2018-06-09T10:40:51.216Z,101077.63
2018-06-09T10:43:20.527Z,101082.15
2018-06-09T10:45:49.906Z,101076.09
2018-06-09T10:48:19.229Z,101077.09
2018-06-09T10:50:48.535Z,101070.20
2018-06-09T10:53:18.191Z,101071.87
2018-06-09T10:55:47.477Z,101073.87
2018-06-09T10:58:16.777Z,101061.47
2018-06-09T11:00:46.155Z,101066.16
2018-06-09T11:03:15.502Z,101070.54
2018-06-09T11:05:44.837Z,101064.80
2018-06-09T11:08:14.198Z,101066.66
2018-06-09T11:10:43.275Z,101056.75
2018-06-09T11:13:12.597Z,101055.34
2018-06-09T11:15:42.495Z,101056.01
2018-06-09T11:18:11.867Z,101055.44
2018-06-09T11:20:41.370Z,101047.62
2018-06-09T11:23:10.719Z,101045.88
2018-06-09T11:25:39.786Z,101047.70
2018-06-09T11:28:09.127Z,101046.71
2018-06-09T11:30:38.505Z,101044.55
2018-06-09T11:33:07.940Z,101041.89
2018-06-09T11:35:37.274Z,101038.81
2018-06-09T11:38:06.612Z,101033.69
2018-06-09T11:40:35.880Z,101029.19
2018-06-09T11:43:05.268Z,101032.09
2018-06-09T11:45:34.825Z,101027.45
2018-06-09T11:48:03.902Z,101023.75
2018-06-09T11:50:33.170Z,101020.50
2018-06-09T11:53:02.558Z,101016.09
2018-06-09T11:55:31.907Z,101021.22
2018-06-09T11:58:01.225Z,101022.32
2018-06-09T12:00:30.544Z,101014.98
2018-06-09T12:02:59.874Z,101019.40
2018-06-09T12:05:29.152Z,101016.47
2018-06-09T12:07:58.529Z,101009.02
2018-06-09T12:10:27.804Z,101001.71
2018-06-09T12:12:57.181Z,101000.98
2018-06-09T12:15:26.553Z,100997.59
2018-06-09T12:17:56.287Z,100995.56
2018-06-09T12:20:25.590Z,100993.34
2018-06-09T12:22:54.880Z,100991.97
2018-06-09T12:25:24.225Z,100983.70
2018-06-09T12:27:53.514Z,100981.14
2018-06-09T12:30:23.339Z,100985.50
2018-06-09T12:32:52.615Z,100973.88
2018-06-09T12:35:21.905Z,100981.12
2018-06-09T12:37:51.307Z,100974.62
2018-06-09T12:40:20.581Z,100977.01
2018-06-09T12:42:49.901Z,100970.34
2018-06-09T12:45:19.219Z,100970.19
2018-06-09T12:47:48.505Z,100969.11
2018-06-09T12:50:17.841Z,100975.41
2018-06-09T12:52:47.598Z,100970.15
2018-06-09T12:55:17.150Z,100967.96
2018-06-09T12:57:46.492Z,100965.23
2018-06-09T13:00:15.873Z,100954.44
2018-06-09T13:02:45.209Z,100962.70
2018-06-09T13:05:14.564Z,100958.15
2018-06-09T13:07:43.896Z,100946.22
2018-06-09T13:10:13.206Z,100952.06
2018-06-09T13:12:42.497Z,100946.72
2018-06-09T13:15:12.145Z,100944.80
2018-06-09T13:17:41.439Z,100947.52
2018-06-09T13:20:11.025Z,100941.34
2018-06-09T13:22:40.351Z,100934.03
2018-06-09T13:25:09.784Z,100927.44
2018-06-09T13:27:39.058Z,100934.20
2018-06-09T13:30:08.151Z,100932.16
2018-06-09T13:32:37.234Z,100926.57
2018-06-09T13:35:06.658Z,100918.58
2018-06-09T13:37:36.501Z,100918.66
2018-06-09T13:40:05.807Z,100913.50
2018-06-09T13:42:35.332Z,100914.30
2018-06-09T13:45:04.674Z,100909.09
2018-06-09T13:47:34.001Z,100915.64
2018-06-09T13:50:03.255Z,100906.74
2018-06-09T13:52:32.534Z,100909.05
2018-06-09T13:55:01.858Z,100909.41
2018-06-09T13:57:31.165Z,100897.91
2018-06-09T14:00:00.745Z,100896.42
2018-06-09T14:02:30.047Z,100908.17
2018-06-09T14:04:59.348Z,100896.55
2018-06-09T14:07:28.876Z,100889.67
2018-06-09T14:09:58.215Z,100899.11
2018-06-09T14:12:27.502Z,100896.03
2018-06-09T14:14:56.905Z,100900.88
2018-06-09T14:17:26.198Z,100897.75
2018-06-09T14:19:55.278Z,100901.40
2018-06-09T14:22:25.955Z,100899.82
2018-06-09T14:24:54.982Z,100895.87
2018-06-09T14:27:24.386Z,100891.17
2018-06-09T14:29:53.743Z,100890.16
2018-06-09T14:32:23.301Z,100892.70
2018-06-09T14:34:52.612Z,100885.02
2018-06-09T14:37:21.938Z,100877.59
2018-06-09T14:39:51.294Z,100875.07
2018-06-09T14:42:20.579Z,100869.69
2018-06-09T14:44:50.133Z,100864.95
2018-06-09T14:47:19.524Z,100868.94
2018-06-09T14:49:48.839Z,100869.72
2018-06-09T14:52:18.151Z,100866.29
2018-06-09T14:54:47.551Z,100868.13
2018-06-09T14:57:16.866Z,100866.11
2018-06-09T14:59:46.384Z,100864.48
2018-06-09T15:02:15.902Z,100860.31
2018-06-09T15:04:45.343Z,100855.04
2018-06-09T15:07:15.180Z,100861.02
2018-06-09T15:09:44.507Z,100860.02
2018-06-09T15:12:13.847Z,100862.91
2018-06-09T15:14:43.168Z,100856.94
2018-06-09T15:17:12.443Z,100858.59
2018-06-09T15:19:41.748Z,100865.48
2018-06-09T15:22:11.051Z,100869.02
2018-06-09T15:24:40.880Z,100868.40
2018-06-09T15:27:10.187Z,100868.81
2018-06-09T15:29:39.602Z,100866.52
2018-06-09T15:32:08.965Z,100865.41
2018-06-09T15:34:38.490Z,100864.78
2018-06-09T15:37:07.890Z,100869.01
2018-06-09T15:39:37.175Z,100868.48
2018-06-09T15:42:06.536Z,100869.06
2018-06-09T15:44:35.902Z,100865.36
2018-06-09T15:47:05.308Z,100861.20
2018-06-09T15:49:34.634Z,100852.38
2018-06-09T15:52:04.271Z,100853.31
2018-06-09T15:54:33.659Z,100855.44
2018-06-09T15:57:02.951Z,100853.89
2018-06-09T15:59:32.051Z,100852.28
2018-06-09T16:02:01.367Z,100850.36
2018-06-09T16:04:30.714Z,100850.70
2018-06-09T16:07:00.057Z,100847.89
2018-06-09T16:09:29.569Z,100846.47
2018-06-09T16:11:58.903Z,100855.11
2018-06-09T16:14:28.443Z,100853.94
2018-06-09T16:16:57.719Z,100860.03
2018-06-09T16:19:26.998Z,100857.05
2018-06-09T16:21:56.355Z,100854.77
2018-06-09T16:24:25.660Z,100856.58
2018-06-09T16:26:55.560Z,100855.31
2018-06-09T16:29:24.917Z,100851.65
2018-06-09T16:31:54.236Z,100852.50
2018-06-09T16:34:23.548Z,100858.71
2018-06-09T16:36:53.214Z,100853.78
2018-06-09T16:39:22.472Z,100863.77
2018-06-09T16:41:51.815Z,100859.13
2018-06-09T16:44:20.911Z,100863.05
2018-06-09T16:46:50.224Z,100859.76
2018-06-09T16:49:19.785Z,100861.02
2018-06-09T16:51:49.090Z,100859.83
2018-06-09T16:54:18.394Z,100860.91
2018-06-09T16:56:47.763Z,100865.38
2018-06-09T16:59:17.166Z,100869.12
2018-06-09T17:01:55.149Z,100858.94
2018-06-09T17:04:24.642Z,100877.13
2018-06-09T17:06:54.102Z,100879.34
2018-06-09T17:09:23.601Z,100874.75
2018-06-09T17:11:52.945Z,100871.69
2018-06-09T17:14:22.310Z,100878.06
2018-06-09T17:16:51.615Z,100878.23
2018-06-09T17:19:20.944Z,100882.25
2018-06-09T17:21:50.257Z,100883.55
2018-06-09T17:24:19.309Z,100882.60
2018-06-09T17:26:48.596Z,100878.81
2018-06-09T17:29:18.056Z,100875.98
2018-06-09T17:31:47.363Z,100873.89
2018-06-09T17:34:16.700Z,100874.94
2018-06-09T17:36:46.015Z,100881.30
2018-06-09T17:39:15.349Z,100882.39
2018-06-09T17:41:45.185Z,100872.11
2018-06-09T17:44:14.536Z,100873.94
2018-06-09T17:46:43.917Z,100876.70
2018-06-09T17:49:13.264Z,100875.61
2018-06-09T17:51:42.575Z,100879.27
2018-06-09T17:54:11.869Z,100884.48
2018-06-09T17:56:41.286Z,100877.60
2018-06-09T17:59:10.609Z,100876.20
2018-06-09T18:01:40.163Z,100875.57
2018-06-09T18:04:09.925Z,100879.55
2018-06-09T18:06:39.260Z,100881.84
2018-06-09T18:09:09.600Z,100887.91
2018-06-09T18:11:38.907Z,100885.64
2018-06-09T18:14:08.482Z,100885.07
2018-06-09T18:16:37.799Z,100886.62
2018-06-09T18:19:07.224Z,100882.94
2018-06-09T18:21:36.535Z,100884.34
2018-06-09T18:24:05.973Z,100882.71
2018-06-09T18:26:35.924Z,100884.92
2018-06-09T18:29:05.319Z,100893.25
2018-06-09T18:31:34.809Z,100892.31
2018-06-09T18:34:04.179Z,100898.52
2018-06-09T18:36:33.467Z,100894.61
2018-06-09T18:39:02.738Z,100899.55
2018-06-09T18:41:32.100Z,100897.05
2018-06-09T18:44:01.405Z,100902.98
2018-06-09T18:46:30.700Z,100900.75
2018-06-09T18:49:00.160Z,100905.21
2018-06-09T18:51:29.818Z,100895.45
2018-06-09T18:53:59.420Z,100893.69
2018-06-09T18:56:28.789Z,100895.94
2018-06-09T18:58:58.155Z,100901.08
2018-06-09T19:01:27.545Z,100900.91
2018-06-09T19:03:56.879Z,100902.00
2018-06-09T19:06:26.461Z,100899.48
2018-06-09T19:08:55.776Z,100908.48
2018-06-09T19:11:25.314Z,100910.20
2018-06-09T19:13:54.668Z,100912.77
2018-06-09T19:16:24.096Z,100913.67
2018-06-09T19:18:53.622Z,100914.87
2018-06-09T19:21:22.965Z,100919.34
2018-06-09T19:23:52.313Z,100921.34
2018-06-09T19:26:21.712Z,100923.04
2018-06-09T19:28:51.016Z,100921.93
2018-06-09T19:31:20.364Z,100918.30
2018-06-09T19:33:50.091Z,100915.01
2018-06-09T19:36:19.548Z,100917.55
2018-06-09T19:38:48.892Z,100922.11
2018-06-09T19:41:18.303Z,100920.11
2018-06-09T19:43:48.121Z,100918.73
2018-06-09T19:46:17.741Z,100929.92
2018-06-09T19:48:47.373Z,100927.41
2018-06-09T19:51:16.861Z,100929.91
2018-06-09T19:53:46.338Z,100930.44
2018-06-09T19:56:16.194Z,100941.08
2018-06-09T19:58:45.692Z,100946.38
2018-06-09T20:01:15.207Z,100953.62
2018-06-09T20:03:44.677Z,100953.06
2018-06-09T20:06:14.255Z,100952.23
2018-06-09T20:08:44.044Z,100955.85
2018-06-09T20:11:13.691Z,100957.82
2018-06-09T20:13:43.255Z,100956.98
2018-06-09T20:16:13.682Z,100960.03
2018-06-09T20:18:43.297Z,100958.91
2018-06-09T20:21:12.752Z,100965.62
2018-06-09T20:23:42.111Z,100969.25
2018-06-09T20:26:11.492Z,100968.97
2018-06-09T20:28:40.857Z,100972.59
2018-06-09T20:31:10.220Z,100968.70
2018-06-09T20:33:39.570Z,100965.63
2018-06-09T20:36:09.148Z,100971.44
2018-06-09T20:38:39.071Z,100977.02
2018-06-09T20:41:08.909Z,100979.56
2018-06-09T20:43:38.706Z,100978.45
2018-06-09T20:46:08.428Z,100976.72
2018-06-09T20:48:37.753Z,100972.52
2018-06-09T20:51:07.290Z,100972.20
2018-06-09T20:53:36.689Z,100976.41
2018-06-09T20:56:06.182Z,100976.91
2018-06-09T20:58:40.535Z,100980.25
2018-06-09T21:01:10.155Z,100978.42
2018-06-09T21:03:39.507Z,100980.14
2018-06-09T21:06:08.859Z,100973.98
2018-06-09T21:08:38.307Z,100973.76
2018-06-09T21:11:07.896Z,100967.53
2018-06-09T21:13:37.344Z,100970.05
2018-06-09T21:16:06.700Z,100965.59
2018-06-09T21:18:36.333Z,100970.38
2018-06-09T21:21:05.669Z,100973.98
2018-06-09T21:23:35.161Z,100972.27
2018-06-09T21:26:04.651Z,100975.28
2018-06-09T21:28:39.363Z,100977.14
2018-06-09T21:31:13.892Z,100970.23
2018-06-09T21:34:05.839Z,100971.34
2018-06-09T21:36:40.451Z,100963.71
2018-06-09T21:39:20.239Z,100961.45
2018-06-09T21:41:55.001Z,100961.13
2018-06-09T21:44:29.520Z,100958.92
2018-06-09T21:46:58.959Z,100958.07
2018-06-09T21:49:28.328Z,100959.03
2018-06-09T21:51:57.686Z,100959.63
2018-06-09T21:54:27.109Z,100960.46
2018-06-09T21:56:56.654Z,100948.40
2018-06-09T21:59:26.236Z,100958.97
2018-06-09T22:01:55.880Z,100951.15
2018-06-09T22:04:25.277Z,100951.34
2018-06-09T22:06:54.844Z,100949.67
2018-06-09T22:09:24.177Z,100946.24
2018-06-09T22:11:53.767Z,100944.27
2018-06-09T22:14:22.979Z,100941.82
2018-06-09T22:16:52.518Z,100947.13
2018-06-09T22:19:21.910Z,100942.95
2018-06-09T22:21:51.479Z,100940.39
2018-06-09T22:24:20.751Z,100934.31
2018-06-09T22:26:50.249Z,100933.81
2018-06-09T22:29:19.979Z,100934.37
2018-06-09T22:31:49.615Z,100932.88
2018-06-09T22:34:19.212Z,100929.55
2018-06-09T22:36:48.934Z,100923.62
2018-06-09T22:39:18.412Z,100926.70
2018-06-09T22:41:47.864Z,100917.30
2018-06-09T22:44:17.888Z,100912.20
2018-06-09T22:46:47.364Z,100901.52
2018-06-09T22:49:16.968Z,100914.84
2018-06-09T22:51:46.678Z,100908.91
2018-06-09T22:54:16.314Z,100902.69
2018-06-09T22:56:46.099Z,100896.92
2018-06-09T22:59:15.912Z,100895.55
2018-06-09T23:01:45.653Z,100897.36
2018-06-09T23:04:15.162Z,100899.91
2018-06-09T23:06:45.135Z,100894.42
2018-06-09T23:09:14.940Z,100889.30
2018-06-09T23:11:44.484Z,100887.50
2018-06-09T23:14:14.172Z,100888.08
2018-06-09T23:16:43.932Z,100888.94
2018-06-09T23:19:13.527Z,100883.38
2018-06-09T23:21:43.215Z,100884.45
2018-06-09T23:24:12.708Z,100884.99
2018-06-09T23:26:42.422Z,100882.78
2018-06-09T23:29:13.046Z,100886.47
2018-06-09T23:31:42.866Z,100890.11
2018-06-09T23:34:12.761Z,100890.63
2018-06-09T23:36:42.387Z,100883.93
2018-06-09T23:39:11.796Z,100875.60
2018-06-09T23:41:41.264Z,100874.12
2018-06-09T23:44:10.654Z,100867.56
2018-06-09T23:46:40.383Z,100872.48
2018-06-09T23:49:10.334Z,100874.98
2018-06-09T23:51:40.122Z,100867.47
2018-06-09T23:54:09.960Z,100862.94
2018-06-09T23:56:39.777Z,100860.74
2018-06-09T23:59:09.852Z,100864.37
